Time;durP1;ratioP1;P1;durP2;ratioP2;P2;SDS_P1;SDS_P2;PMS_P1;PMS_P2;Temp;Humidity;BMP_temperature;BMP_pressure;BME280_temperature;BME280_humidity;BME280_pressure;Samples;Min_cycle;Max_cycle;Signal;HPM_P1;HPM_P2
2023/12/13 00:01:53;;;;;;;1.37;0.60;;;6.90;99.90;;;;;;5049019;28;20425;-58
2023/12/13 00:04:18;;;;;;;1.00;0.50;;;6.80;99.90;;;;;;5051721;28;20417;-58
2023/12/13 00:06:44;;;;;;;2.17;0.43;;;6.80;99.90;;;;;;5053333;28;20200;-58
2023/12/13 00:09:09;;;;;;;1.00;0.50;;;6.70;99.90;;;;;;5048026;28;20198;-58
2023/12/13 00:11:35;;;;;;;1.20;0.50;;;6.70;99.90;;;;;;5050668;28;20209;-59
2023/12/13 00:14:01;;;;;;;1.20;0.60;;;6.70;99.90;;;;;;5053087;28;20190;-59
2023/12/13 00:16:26;;;;;;;1.30;0.70;;;6.60;99.90;;;;;;5052606;28;20251;-58
2023/12/13 00:18:52;;;;;;;1.00;0.50;;;6.60;99.90;;;;;;5053141;28;20201;-58
2023/12/13 00:21:18;;;;;;;1.00;0.40;;;6.60;99.90;;;;;;5053060;28;20190;-58
2023/12/13 00:23:46;;;;;;;3.63;0.70;;;6.50;99.90;;;;;;5052786;28;20178;-59
2023/12/13 00:26:16;;;;;;;1.10;0.50;;;6.40;99.90;;;;;;5050321;28;20182;-58
2023/12/13 00:28:41;;;;;;;1.23;0.60;;;6.50;99.90;;;;;;5043920;28;20428;-59
2023/12/13 00:31:08;;;;;;;3.30;0.73;;;6.30;99.90;;;;;;5049998;28;20428;-58
2023/12/13 00:33:33;;;;;;;1.30;0.50;;;6.30;99.90;;;;;;5035459;28;20179;-58
2023/12/13 00:35:59;;;;;;;2.70;0.90;;;6.30;99.90;;;;;;5038619;28;20468;-59
2023/12/13 00:38:24;;;;;;;1.10;0.50;;;6.30;99.90;;;;;;5029741;28;20195;-60
2023/12/13 00:40:50;;;;;;;1.00;0.50;;;6.20;99.90;;;;;;5033292;28;20224;-59
2023/12/13 00:43:16;;;;;;;3.57;0.50;;;6.30;99.90;;;;;;5034890;28;20722;-58
2023/12/13 00:45:42;;;;;;;1.83;0.53;;;6.20;99.90;;;;;;5050491;28;20181;-59
2023/12/13 00:48:08;;;;;;;2.37;0.80;;;6.20;99.90;;;;;;5052537;28;20181;-58
2023/12/13 00:50:33;;;;;;;1.20;0.60;;;6.20;99.90;;;;;;5049548;28;20628;-58
2023/12/13 00:52:59;;;;;;;1.37;0.60;;;6.20;99.90;;;;;;5044457;28;20420;-59
2023/12/13 00:55:25;;;;;;;1.10;0.50;;;6.20;99.90;;;;;;5044905;28;20178;-59
2023/12/13 00:57:51;;;;;;;2.03;0.70;;;6.20;99.90;;;;;;5052239;28;20288;-58
2023/12/13 01:00:17;;;;;;;2.60;0.70;;;6.20;99.90;;;;;;5043204;28;20575;-58
2023/12/13 01:02:42;;;;;;;2.70;0.80;;;6.20;99.90;;;;;;5052234;28;20189;-59
2023/12/13 01:05:08;;;;;;;1.00;0.50;;;6.30;99.90;;;;;;5031853;28;20200;-58
2023/12/13 01:07:33;;;;;;;1.00;0.43;;;6.30;99.90;;;;;;5041463;28;20682;-58
2023/12/13 01:09:59;;;;;;;1.83;0.70;;;6.30;99.90;;;;;;5050713;28;20196;-59
2023/12/13 01:12:24;;;;;;;1.70;0.70;;;6.30;99.90;;;;;;5049612;28;20513;-58
2023/12/13 01:14:50;;;;;;;4.90;0.70;;;6.30;99.90;;;;;;5051519;28;20273;-57
2023/12/13 01:17:15;;;;;;;1.67;0.70;;;6.20;99.90;;;;;;5051870;28;20619;-58
2023/12/13 01:19:41;;;;;;;3.37;0.80;;;6.20;99.90;;;;;;5052023;28;20197;-58
2023/12/13 01:22:08;;;;;;;3.50;1.30;;;6.10;99.90;;;;;;5052285;28;20209;-59
2023/12/13 01:24:33;;;;;;;1.87;0.70;;;6.10;99.90;;;;;;5045494;28;20178;-59
2023/12/13 01:26:59;;;;;;;1.40;0.50;;;6.00;99.90;;;;;;5044771;28;20477;-58
2023/12/13 01:29:24;;;;;;;2.13;0.70;;;6.00;99.90;;;;;;5050530;28;20190;-57
2023/12/13 01:31:50;;;;;;;1.00;0.50;;;6.00;99.90;;;;;;5050057;28;20311;-58
2023/12/13 01:34:16;;;;;;;2.60;0.77;;;6.00;99.90;;;;;;5047626;28;20189;-58
2023/12/13 01:36:41;;;;;;;6.50;0.70;;;6.00;99.90;;;;;;5030865;28;20310;-59
2023/12/13 01:39:07;;;;;;;1.30;0.60;;;6.00;99.90;;;;;;5034390;28;20278;-59
2023/12/13 01:41:33;;;;;;;2.53;0.80;;;5.90;99.90;;;;;;5030782;28;20293;-59
2023/12/13 01:43:59;;;;;;;1.87;0.63;;;5.90;99.90;;;;;;5040666;28;20181;-59
2023/12/13 01:46:24;;;;;;;2.13;1.40;;;5.80;99.90;;;;;;5051879;28;20194;-59
2023/12/13 01:48:50;;;;;;;2.70;0.80;;;5.90;99.90;;;;;;5051201;28;20178;-59
2023/12/13 01:51:16;;;;;;;1.50;0.67;;;5.80;99.90;;;;;;5050943;28;20608;-57
2023/12/13 01:53:43;;;;;;;1.83;0.60;;;5.80;99.90;;;;;;5050829;28;20420;-57
2023/12/13 01:56:11;;;;;;;23.27;0.90;;;5.80;99.90;;;;;;5042454;28;20467;-57
2023/12/13 01:58:38;;;;;;;2.67;1.00;;;5.80;99.90;;;;;;5050714;28;20420;-57
2023/12/13 02:01:07;;;;;;;2.17;0.80;;;5.80;99.90;;;;;;5041117;28;20972;-59
2023/12/13 02:03:33;;;;;;;2.17;0.97;;;5.80;99.90;;;;;;5045055;28;20432;-59
2023/12/13 02:06:00;;;;;;;15.70;1.10;;;5.80;99.90;;;;;;5033558;28;20447;-58
2023/12/13 02:08:26;;;;;;;1.50;0.67;;;5.80;99.90;;;;;;5048277;28;20794;-58
2023/12/13 02:10:52;;;;;;;2.70;0.63;;;5.80;99.90;;;;;;5042263;28;20462;-59
2023/12/13 02:13:17;;;;;;;4.83;0.50;;;5.80;99.90;;;;;;5050898;28;20462;-59
2023/12/13 02:15:44;;;;;;;3.53;1.00;;;5.80;99.90;;;;;;5050412;28;20186;-59
2023/12/13 02:18:10;;;;;;;1.50;0.60;;;5.80;99.90;;;;;;5050643;28;20182;-59
2023/12/13 02:20:36;;;;;;;2.30;0.70;;;5.80;99.90;;;;;;5050983;28;20416;-57
2023/12/13 02:23:01;;;;;;;1.10;0.50;;;5.80;99.90;;;;;;5050788;28;20221;-57
2023/12/13 02:25:52;;;;;;;1.10;0.60;;;5.90;99.90;;;;;;5047623;28;20186;-57
2023/12/13 02:28:18;;;;;;;1.00;0.53;;;5.80;99.90;;;;;;5026056;28;20189;-58
2023/12/13 02:30:46;;;;;;;1.80;0.80;;;5.80;99.90;;;;;;5046548;28;20428;-59
2023/12/13 02:33:11;;;;;;;2.73;0.50;;;5.80;99.90;;;;;;5045214;28;20555;-59
2023/12/13 02:35:37;;;;;;;1.10;0.60;;;5.80;99.90;;;;;;5042036;28;20431;-57
2023/12/13 02:38:02;;;;;;;5.87;1.40;;;5.80;99.90;;;;;;5026984;28;20201;-58
2023/12/13 02:40:28;;;;;;;1.43;0.60;;;5.80;99.90;;;;;;5031328;28;20523;-59
2023/12/13 02:42:54;;;;;;;1.53;0.70;;;5.80;99.90;;;;;;5034044;28;20178;-59
2023/12/13 02:45:20;;;;;;;4.20;0.67;;;5.80;99.90;;;;;;5045135;28;20181;-58
2023/12/13 02:47:46;;;;;;;4.30;0.80;;;5.70;99.90;;;;;;5050656;28;20190;-59
2023/12/13 02:50:13;;;;;;;3.00;1.17;;;5.80;99.90;;;;;;5050248;28;20511;-59
2023/12/13 02:52:39;;;;;;;1.20;0.60;;;5.70;99.90;;;;;;5050927;28;20280;-59
2023/12/13 02:55:06;;;;;;;2.43;0.70;;;5.70;99.90;;;;;;5041195;28;20437;-59
2023/12/13 02:57:31;;;;;;;1.33;0.83;;;5.80;99.90;;;;;;5050765;28;20459;-59
2023/12/13 02:59:57;;;;;;;6.83;0.87;;;5.80;99.90;;;;;;5033799;28;20468;-59
2023/12/13 03:02:22;;;;;;;1.20;0.60;;;5.80;99.90;;;;;;5051014;28;20658;-59
2023/12/13 03:04:48;;;;;;;1.00;0.40;;;5.80;99.90;;;;;;5037403;28;20314;-59
2023/12/13 03:07:13;;;;;;;2.70;0.87;;;5.70;99.90;;;;;;5039530;28;20307;-59
2023/12/13 03:09:39;;;;;;;1.80;0.60;;;5.80;99.90;;;;;;5048551;28;20190;-59
2023/12/13 03:12:06;;;;;;;1.30;0.60;;;5.70;99.90;;;;;;5054501;28;20185;-58
2023/12/13 03:14:31;;;;;;;3.20;0.53;;;5.70;99.90;;;;;;5051490;28;20193;-57
2023/12/13 03:16:57;;;;;;;1.30;0.57;;;5.70;99.90;;;;;;5054378;28;20459;-58
2023/12/13 03:19:22;;;;;;;3.10;0.80;;;5.70;99.90;;;;;;5054024;28;20343;-58
2023/12/13 03:21:48;;;;;;;1.50;0.60;;;5.70;99.90;;;;;;5054197;28;20646;-59
2023/12/13 03:24:14;;;;;;;1.00;0.50;;;6.10;99.90;;;;;;5041920;28;20190;-59
2023/12/13 03:26:39;;;;;;;2.00;0.80;;;5.80;99.90;;;;;;5054383;28;20185;-58
2023/12/13 03:29:05;;;;;;;1.10;0.53;;;5.90;99.90;;;;;;5049386;28;20622;-58
2023/12/13 03:31:30;;;;;;;1.00;0.50;;;6.20;99.90;;;;;;5040531;28;20228;-57
2023/12/13 03:33:56;;;;;;;2.10;0.57;;;5.90;99.90;;;;;;5032233;28;20191;-57
2023/12/13 03:36:21;;;;;;;3.93;0.60;;;5.90;99.90;;;;;;5037952;28;20749;-59
2023/12/13 03:38:47;;;;;;;1.10;0.50;;;5.90;99.90;;;;;;5034003;28;20186;-59
2023/12/13 03:41:13;;;;;;;1.30;0.60;;;6.20;99.90;;;;;;5036558;28;20701;-57
2023/12/13 03:43:39;;;;;;;1.00;0.50;;;5.80;99.90;;;;;;5037451;28;20182;-58
2023/12/13 03:46:05;;;;;;;1.10;0.50;;;5.80;99.90;;;;;;5053257;28;20840;-59
2023/12/13 03:48:31;;;;;;;1.77;0.80;;;5.80;99.90;;;;;;5048209;28;20421;-59
2023/12/13 03:50:57;;;;;;;1.07;0.57;;;5.80;99.90;;;;;;5046556;28;20497;-59
2023/12/13 03:53:22;;;;;;;1.20;0.60;;;5.80;99.90;;;;;;5053333;28;20194;-59
2023/12/13 03:55:48;;;;;;;1.10;0.50;;;5.80;99.90;;;;;;5045268;28;20235;-59
2023/12/13 03:58:13;;;;;;;1.83;0.70;;;5.70;99.90;;;;;;5053819;28;20539;-59
2023/12/13 04:00:38;;;;;;;1.80;0.60;;;5.70;99.90;;;;;;5043263;28;20665;-59
2023/12/13 04:03:04;;;;;;;5.10;0.40;;;5.80;99.90;;;;;;5040256;28;20338;-59
2023/12/13 04:05:30;;;;;;;4.87;0.80;;;5.70;99.90;;;;;;5053170;28;20182;-59
2023/12/13 04:07:55;;;;;;;1.20;0.60;;;5.70;99.90;;;;;;5050835;28;20611;-59
2023/12/13 04:10:21;;;;;;;1.00;0.40;;;5.70;99.90;;;;;;5035600;28;20201;-59
2023/12/13 04:12:46;;;;;;;2.40;0.80;;;5.70;99.90;;;;;;5052922;28;20577;-57
2023/12/13 04:15:12;;;;;;;1.07;0.53;;;5.70;99.90;;;;;;5049573;28;20190;-57
2023/12/13 04:17:37;;;;;;;2.13;0.70;;;5.80;99.90;;;;;;5051031;28;20213;-59
2023/12/13 04:20:04;;;;;;;1.10;0.50;;;5.80;99.90;;;;;;5053008;28;20188;-59
2023/12/13 04:22:29;;;;;;;1.20;0.60;;;5.90;99.90;;;;;;5053237;28;20174;-57
2023/12/13 04:24:55;;;;;;;1.10;0.50;;;5.90;99.90;;;;;;5045783;28;20939;-57
2023/12/13 04:27:20;;;;;;;1.50;0.50;;;5.90;99.90;;;;;;5047156;28;20699;-59
2023/12/13 04:29:46;;;;;;;1.00;0.40;;;6.00;99.90;;;;;;5034175;28;20189;-59
2023/12/13 04:32:11;;;;;;;1.00;0.40;;;6.00;99.90;;;;;;5038939;28;20261;-58
2023/12/13 04:34:37;;;;;;;3.30;0.60;;;6.00;99.90;;;;;;5026758;28;20267;-57
2023/12/13 04:37:03;;;;;;;3.10;0.70;;;6.00;99.90;;;;;;5020098;28;20210;-57
2023/12/13 04:39:29;;;;;;;1.53;0.60;;;6.00;99.90;;;;;;5024733;28;20615;-57
2023/12/13 04:41:54;;;;;;;1.67;0.50;;;6.30;99.90;;;;;;5040550;28;20543;-59
2023/12/13 04:44:19;;;;;;;1.00;0.50;;;6.00;99.90;;;;;;5044603;28;20204;-59
2023/12/13 04:46:45;;;;;;;1.20;0.60;;;6.00;99.90;;;;;;5052546;28;20578;-60
2023/12/13 04:49:11;;;;;;;1.07;0.50;;;6.00;99.90;;;;;;5044516;28;20217;-59
2023/12/13 04:51:36;;;;;;;1.00;0.50;;;6.10;99.90;;;;;;5052153;28;20185;-59
2023/12/13 04:54:02;;;;;;;4.70;1.03;;;6.00;99.90;;;;;;5052003;28;20181;-59
2023/12/13 04:56:27;;;;;;;1.10;0.50;;;6.10;99.90;;;;;;5052322;28;20210;-59
2023/12/13 04:58:53;;;;;;;2.80;0.60;;;6.10;99.90;;;;;;5049890;28;20183;-60
2023/12/13 05:01:19;;;;;;;1.77;0.70;;;6.10;99.90;;;;;;5044734;28;20236;-59
2023/12/13 05:03:44;;;;;;;1.60;0.97;;;6.20;99.90;;;;;;5040458;28;20421;-58
2023/12/13 05:06:10;;;;;;;3.00;1.10;;;6.20;99.90;;;;;;5052137;28;20180;-58
2023/12/13 05:08:35;;;;;;;1.67;0.70;;;6.30;99.90;;;;;;5051833;28;20194;-58
2023/12/13 05:11:01;;;;;;;1.30;0.60;;;6.30;99.90;;;;;;5051941;28;20651;-58
2023/12/13 05:13:27;;;;;;;1.87;0.77;;;6.90;99.90;;;;;;5051745;28;20209;-58
2023/12/13 05:15:52;;;;;;;1.70;0.77;;;6.40;99.90;;;;;;5051389;28;20190;-57
2023/12/13 05:18:18;;;;;;;2.50;0.87;;;6.30;99.90;;;;;;5050402;28;20716;-56
2023/12/13 05:20:44;;;;;;;1.10;0.50;;;6.30;99.90;;;;;;5051853;28;20216;-56
2023/12/13 05:23:10;;;;;;;1.50;0.80;;;6.40;99.90;;;;;;5051625;28;20264;-57
2023/12/13 05:25:37;;;;;;;1.10;0.50;;;6.50;99.90;;;;;;5050622;28;20511;-59
2023/12/13 05:28:03;;;;;;;4.60;0.77;;;6.40;99.90;;;;;;5051892;28;20192;-59
2023/12/13 05:30:28;;;;;;;1.23;0.57;;;6.40;99.90;;;;;;5047955;28;20431;-61
2023/12/13 05:32:54;;;;;;;1.30;0.60;;;6.40;99.90;;;;;;5035845;28;20179;-61
2023/12/13 05:35:20;;;;;;;2.20;0.63;;;6.30;99.90;;;;;;5036286;28;20198;-61
2023/12/13 05:37:45;;;;;;;1.60;0.60;;;6.30;99.90;;;;;;5024425;28;20208;-61
2023/12/13 05:40:12;;;;;;;1.20;0.57;;;6.30;99.90;;;;;;5028997;28;20198;-61
2023/12/13 05:42:38;;;;;;;1.50;0.60;;;6.30;99.90;;;;;;5050079;28;20433;-61
2023/12/13 05:45:04;;;;;;;1.00;0.53;;;6.30;99.90;;;;;;5043796;28;20466;-61
2023/12/13 05:47:29;;;;;;;1.10;0.50;;;6.30;99.90;;;;;;5049330;28;20927;-61
2023/12/13 05:49:55;;;;;;;2.10;0.60;;;6.20;99.90;;;;;;5044231;28;20201;-61
2023/12/13 05:52:20;;;;;;;1.50;0.80;;;7.00;99.90;;;;;;5051114;28;20186;-61
2023/12/13 05:54:46;;;;;;;1.33;0.50;;;6.30;99.90;;;;;;5033468;28;20751;-61
2023/12/13 05:57:11;;;;;;;1.60;0.60;;;6.20;99.90;;;;;;5043695;28;20205;-59
2023/12/13 05:59:37;;;;;;;1.97;0.60;;;6.20;99.90;;;;;;5038962;28;20297;-59
2023/12/13 06:02:03;;;;;;;1.17;0.57;;;6.20;99.90;;;;;;5050062;28;20514;-61
2023/12/13 06:04:28;;;;;;;6.17;1.50;;;6.20;99.90;;;;;;5041100;28;20757;-61
2023/12/13 06:06:54;;;;;;;2.90;0.97;;;6.20;99.90;;;;;;5050917;28;20430;-61
2023/12/13 06:09:20;;;;;;;5.33;1.43;;;6.70;99.90;;;;;;5050470;28;20185;-59
2023/12/13 06:11:46;;;;;;;5.20;1.40;;;6.30;99.90;;;;;;5050932;28;20192;-56
2023/12/13 06:14:11;;;;;;;2.43;0.80;;;6.30;99.90;;;;;;5050487;28;20416;-56
2023/12/13 06:16:37;;;;;;;3.80;1.10;;;7.00;99.90;;;;;;5050775;28;20205;-56
2023/12/13 06:19:02;;;;;;;6.00;1.03;;;6.30;99.90;;;;;;5049482;28;20541;-56
2023/12/13 06:21:28;;;;;;;3.57;1.67;;;6.30;99.90;;;;;;5051019;28;20300;-56
2023/12/13 06:23:53;;;;;;;3.00;1.37;;;6.30;99.90;;;;;;5050529;28;20533;-56
2023/12/13 06:26:18;;;;;;;2.40;1.13;;;6.50;99.90;;;;;;5050934;28;20197;-56
2023/12/13 06:28:44;;;;;;;1.40;0.90;;;6.30;99.90;;;;;;5049348;28;20209;-56
2023/12/13 06:31:09;;;;;;;2.57;0.90;;;6.30;99.90;;;;;;5048614;28;20198;-59
2023/12/13 06:33:35;;;;;;;1.93;0.80;;;6.50;99.90;;;;;;5034887;28;20256;-61
2023/12/13 06:36:00;;;;;;;6.33;1.00;;;6.40;99.90;;;;;;5038868;28;20347;-59
2023/12/13 06:38:26;;;;;;;3.40;0.90;;;6.40;99.90;;;;;;5022068;28;20191;-59
2023/12/13 06:40:51;;;;;;;3.70;1.70;;;6.40;99.90;;;;;;5025126;28;20178;-59
2023/12/13 06:43:17;;;;;;;2.50;1.10;;;6.40;99.90;;;;;;5041751;28;20212;-59
2023/12/13 06:45:42;;;;;;;1.73;0.83;;;6.40;99.90;;;;;;5048502;28;20261;-56
2023/12/13 06:48:08;;;;;;;3.00;0.90;;;6.40;99.90;;;;;;5049205;28;20542;-56
2023/12/13 06:50:34;;;;;;;4.37;1.70;;;6.80;99.90;;;;;;5050645;28;20196;-56
2023/12/13 06:53:00;;;;;;;3.87;1.50;;;6.40;99.90;;;;;;5031104;28;20867;-56
2023/12/13 06:55:26;;;;;;;2.77;1.23;;;6.40;99.90;;;;;;5048197;28;20185;-56
2023/12/13 06:57:51;;;;;;;1.30;0.70;;;6.30;99.90;;;;;;5047723;28;20225;-59
2023/12/13 07:00:21;;;;;;;10.60;1.27;;;6.30;99.90;;;;;;5038590;28;20237;-59
2023/12/13 07:02:47;;;;;;;1.60;0.60;;;6.30;99.90;;;;;;5037491;28;20174;-59
2023/12/13 07:05:12;;;;;;;2.40;1.10;;;6.30;99.90;;;;;;5048439;28;20976;-59
2023/12/13 07:07:38;;;;;;;1.50;0.67;;;6.30;99.90;;;;;;5048927;28;20185;-59
2023/12/13 07:10:04;;;;;;;1.50;0.60;;;6.40;99.90;;;;;;5034446;28;20190;-59
2023/12/13 07:12:29;;;;;;;4.33;0.80;;;6.30;99.90;;;;;;5035799;28;20227;-58
2023/12/13 07:14:58;;;;;;;1.57;0.57;;;6.40;99.90;;;;;;5049869;28;20182;-59
2023/12/13 07:17:24;;;;;;;1.20;0.70;;;6.80;99.90;;;;;;5050368;28;20282;-61
2023/12/13 07:19:50;;;;;;;2.63;0.77;;;6.40;99.90;;;;;;5049978;28;20523;-61
2023/12/13 07:22:15;;;;;;;2.20;0.90;;;6.30;99.90;;;;;;5049803;28;20182;-61
2023/12/13 07:24:41;;;;;;;3.80;1.57;;;6.70;99.90;;;;;;5047711;28;20190;-61
2023/12/13 07:27:06;;;;;;;2.10;1.20;;;6.40;99.90;;;;;;5050324;28;20227;-61
2023/12/13 07:29:33;;;;;;;2.43;0.80;;;6.40;99.90;;;;;;5046231;28;20193;-61
2023/12/13 07:31:59;;;;;;;4.23;1.00;;;6.40;99.90;;;;;;5045422;28;20187;-58
2023/12/13 07:34:24;;;;;;;1.27;0.80;;;6.40;99.90;;;;;;5048184;28;20427;-59
2023/12/13 07:36:51;;;;;;;3.93;1.20;;;6.30;99.90;;;;;;5026744;28;20211;-59
2023/12/13 07:39:16;;;;;;;10.00;1.50;;;6.40;99.90;;;;;;5025369;28;20191;-59
2023/12/13 07:41:42;;;;;;;2.83;0.80;;;6.40;99.90;;;;;;5033785;28;20428;-58
2023/12/13 07:44:07;;;;;;;1.33;0.77;;;6.80;99.90;;;;;;5041951;28;20182;-58
2023/12/13 07:46:33;;;;;;;2.40;0.73;;;6.50;99.90;;;;;;5050011;28;20190;-61
2023/12/13 07:49:03;;;;;;;1.50;0.90;;;6.60;99.90;;;;;;5033110;28;20186;-61
2023/12/13 07:51:29;;;;;;;2.07;1.03;;;6.40;99.90;;;;;;5022589;28;20194;-59
2023/12/13 07:53:55;;;;;;;5.37;1.33;;;6.70;99.90;;;;;;5028005;28;20428;-60
2023/12/13 07:56:21;;;;;;;3.93;0.90;;;6.40;99.90;;;;;;5045611;28;20963;-59
2023/12/13 07:58:46;;;;;;;1.07;0.57;;;6.40;99.90;;;;;;5051330;28;20244;-59
2023/12/13 08:01:14;;;;;;;3.13;1.13;;;6.50;99.90;;;;;;5044867;28;20229;-59
2023/12/13 08:03:40;;;;;;;2.90;1.30;;;6.50;99.90;;;;;;5032459;28;20182;-59
2023/12/13 08:06:12;;;;;;;6.13;1.50;;;6.90;99.90;;;;;;5052997;28;20507;-59
2023/12/13 08:08:41;;;;;;;4.03;1.40;;;6.50;99.90;;;;;;5039729;28;20174;-59
2023/12/13 08:11:08;;;;;;;1.87;0.80;;;6.40;99.90;;;;;;5052336;28;20957;-59
2023/12/13 08:13:33;;;;;;;1.80;1.03;;;6.40;99.90;;;;;;5052736;28;20489;-59
2023/12/13 08:15:59;;;;;;;3.00;1.20;;;6.90;99.90;;;;;;5052261;28;20445;-59
2023/12/13 08:18:25;;;;;;;2.13;0.97;;;6.60;99.90;;;;;;5052764;28;20189;-58
2023/12/13 08:20:51;;;;;;;6.30;1.10;;;6.40;99.90;;;;;;5052707;28;20428;-59
2023/12/13 08:23:16;;;;;;;2.60;1.03;;;7.00;99.90;;;;;;5042900;28;20249;-58
2023/12/13 08:25:42;;;;;;;2.63;1.20;;;6.80;99.90;;;;;;5045973;28;20268;-59
2023/12/13 08:28:08;;;;;;;4.13;1.10;;;6.40;99.90;;;;;;5048547;28;20186;-59
2023/12/13 08:30:34;;;;;;;1.87;0.90;;;6.40;99.90;;;;;;5049329;28;20293;-57
2023/12/13 08:33:00;;;;;;;2.90;1.20;;;6.50;99.90;;;;;;5048273;28;20519;-57
2023/12/13 08:35:26;;;;;;;4.40;1.23;;;6.50;99.90;;;;;;5052029;28;20228;-57
2023/12/13 08:37:54;;;;;;;3.80;1.13;;;6.50;99.90;;;;;;5023952;28;20213;-58
2023/12/13 08:40:20;;;;;;;1.70;0.93;;;6.50;99.90;;;;;;5017787;28;20444;-59
2023/12/13 08:42:46;;;;;;;6.03;1.43;;;6.80;99.90;;;;;;5050580;28;20434;-57
2023/12/13 08:45:12;;;;;;;4.67;1.20;;;6.50;99.90;;;;;;5045643;28;20584;-57
2023/12/13 08:47:38;;;;;;;1.30;0.70;;;6.50;99.90;;;;;;5050804;28;20464;-58
2023/12/13 08:50:04;;;;;;;13.37;1.63;;;6.90;99.90;;;;;;5048385;28;20846;-59
2023/12/13 08:52:29;;;;;;;2.00;1.10;;;6.70;99.90;;;;;;5052364;28;20193;-57
2023/12/13 08:54:55;;;;;;;4.03;1.40;;;6.70;99.90;;;;;;5038417;28;20194;-57
2023/12/13 08:57:21;;;;;;;5.20;1.90;;;7.00;99.90;;;;;;5051007;28;20240;-59
2023/12/13 08:59:47;;;;;;;5.57;1.13;;;7.20;99.90;;;;;;5032113;28;20486;-59
2023/12/13 09:02:12;;;;;;;2.80;1.53;;;7.20;99.90;;;;;;5036113;28;20185;-59
2023/12/13 09:04:38;;;;;;;1.30;0.90;;;7.00;99.90;;;;;;5050306;28;20220;-59
2023/12/13 09:07:03;;;;;;;7.43;2.03;;;7.00;99.90;;;;;;5051807;28;20665;-59
2023/12/13 09:09:31;;;;;;;3.43;0.90;;;7.10;99.90;;;;;;5047846;28;20186;-59
2023/12/13 09:11:57;;;;;;;1.50;0.80;;;7.20;99.90;;;;;;5051611;28;20185;-59
2023/12/13 09:14:23;;;;;;;5.40;1.20;;;7.30;99.90;;;;;;5043599;28;20437;-59
2023/12/13 09:16:48;;;;;;;3.17;0.93;;;7.10;99.90;;;;;;5051765;28;20484;-60
2023/12/13 09:19:14;;;;;;;4.20;1.57;;;7.50;99.90;;;;;;5051496;28;20177;-59
2023/12/13 09:21:40;;;;;;;3.40;1.23;;;7.40;99.90;;;;;;5051532;28;20208;-59
2023/12/13 09:24:07;;;;;;;1.57;0.83;;;7.10;99.90;;;;;;5051026;28;20273;-59
2023/12/13 09:26:33;;;;;;;6.00;1.13;;;7.00;99.90;;;;;;5051491;28;20470;-59
2023/12/13 09:28:59;;;;;;;4.70;1.10;;;7.10;99.90;;;;;;5047621;28;20425;-59
2023/12/13 09:31:24;;;;;;;1.40;0.97;;;7.20;99.90;;;;;;5051567;28;20181;-59
2023/12/13 09:33:52;;;;;;;5.23;1.20;;;7.20;99.90;;;;;;5046556;28;20209;-59
2023/12/13 09:36:18;;;;;;;1.63;0.90;;;7.30;99.90;;;;;;5011269;28;20253;-60
2023/12/13 09:38:43;;;;;;;1.50;0.70;;;7.60;99.90;;;;;;5029039;28;20421;-59
2023/12/13 09:41:09;;;;;;;4.07;1.20;;;7.30;99.90;;;;;;5032087;28;20259;-59
2023/12/13 09:43:40;;;;;;;1.60;0.83;;;7.70;99.90;;;;;;5039130;28;20190;-60
2023/12/13 09:46:07;;;;;;;6.83;1.30;;;7.50;99.90;;;;;;5050777;28;20211;-57
2023/12/13 09:48:35;;;;;;;2.73;1.37;;;7.70;99.90;;;;;;5044151;28;20425;-57
2023/12/13 09:51:02;;;;;;;7.33;0.90;;;7.50;99.90;;;;;;5050978;28;20412;-58
2023/12/13 09:53:29;;;;;;;6.20;1.17;;;7.20;99.90;;;;;;5047503;28;20750;-57
2023/12/13 09:55:55;;;;;;;9.10;1.37;;;7.40;99.90;;;;;;5050777;28;20416;-57
2023/12/13 09:58:20;;;;;;;3.90;1.20;;;7.10;99.90;;;;;;5051133;28;20559;-57
2023/12/13 10:00:46;;;;;;;1.40;0.70;;;7.40;99.90;;;;;;5041564;28;20240;-59
2023/12/13 10:03:11;;;;;;;4.80;1.40;;;7.10;99.90;;;;;;5040812;28;20640;-60
2023/12/13 10:05:40;;;;;;;1.90;1.13;;;7.10;99.90;;;;;;5050823;28;20189;-57
2023/12/13 10:08:08;;;;;;;5.00;1.27;;;7.40;99.90;;;;;;5049359;28;20190;-57
2023/12/13 10:10:36;;;;;;;4.00;1.33;;;7.10;99.90;;;;;;5041905;28;20467;-59
2023/12/13 10:13:02;;;;;;;6.53;0.83;;;7.40;99.90;;;;;;5041168;28;20491;-59
2023/12/13 10:15:31;;;;;;;8.87;1.70;;;7.00;99.90;;;;;;5040997;28;20420;-59
2023/12/13 10:17:58;;;;;;;4.87;1.10;;;7.00;99.90;;;;;;5050381;28;20194;-59
2023/12/13 10:20:24;;;;;;;6.23;1.60;;;6.90;99.90;;;;;;5045670;28;20501;-59
2023/12/13 10:22:50;;;;;;;15.77;1.80;;;6.90;99.90;;;;;;5050587;28;20424;-59
2023/12/13 10:25:19;;;;;;;1.97;1.00;;;7.00;99.90;;;;;;5041493;28;20894;-59
2023/12/13 10:27:44;;;;;;;1.97;1.10;;;7.20;99.90;;;;;;5050481;28;20178;-59
2023/12/13 10:30:11;;;;;;;2.90;1.07;;;7.30;99.90;;;;;;5047227;28;20881;-59
2023/12/13 10:32:36;;;;;;;1.97;0.80;;;7.40;99.90;;;;;;5044894;28;20193;-58
2023/12/13 10:35:04;;;;;;;3.53;1.60;;;7.50;99.90;;;;;;5041566;28;20427;-58
2023/12/13 10:37:33;;;;;;;2.33;1.07;;;7.60;99.90;;;;;;5023937;28;20259;-59
2023/12/13 10:39:59;;;;;;;1.37;0.70;;;7.70;99.90;;;;;;5020778;28;20468;-59
2023/12/13 10:42:25;;;;;;;8.93;1.50;;;8.00;99.90;;;;;;5043711;28;20423;-59
2023/12/13 10:44:52;;;;;;;6.33;1.20;;;8.10;99.90;;;;;;5039326;28;20438;-59
2023/12/13 10:47:23;;;;;;;2.37;1.10;;;8.20;99.90;;;;;;5048699;28;20180;-57
2023/12/13 10:49:51;;;;;;;2.63;1.10;;;8.10;99.90;;;;;;5043938;28;20424;-57
2023/12/13 10:52:20;;;;;;;3.10;1.10;;;8.20;99.90;;;;;;5050964;28;20538;-59
2023/12/13 10:54:47;;;;;;;4.80;1.13;;;8.30;99.90;;;;;;5050289;28;20609;-59
2023/12/13 10:57:14;;;;;;;2.67;1.33;;;8.40;99.90;;;;;;5050587;28;20456;-59
2023/12/13 10:59:41;;;;;;;1.97;0.80;;;8.30;99.90;;;;;;5033797;28;20428;-59
2023/12/13 11:02:09;;;;;;;5.00;2.23;;;8.20;99.90;;;;;;5050048;28;20470;-57
2023/12/13 11:04:37;;;;;;;2.40;1.00;;;8.30;99.90;;;;;;5042098;28;20477;-57
2023/12/13 11:07:06;;;;;;;2.17;1.03;;;8.60;99.90;;;;;;5024299;28;20435;-59
2023/12/13 11:09:32;;;;;;;4.70;2.13;;;8.40;99.90;;;;;;5047514;28;20466;-59
2023/12/13 11:12:09;;;;;;;1.67;0.70;;;8.70;99.90;;;;;;5034722;28;21071;-57
2023/12/13 11:14:35;;;;;;;6.13;1.87;;;8.60;99.90;;;;;;5044651;28;20181;-57
2023/12/13 11:17:00;;;;;;;2.13;1.23;;;8.70;99.90;;;;;;5050217;28;20464;-59
2023/12/13 11:19:27;;;;;;;3.57;1.20;;;9.20;99.90;;;;;;5049172;28;20673;-59
2023/12/13 11:21:55;;;;;;;15.90;2.00;;;8.70;99.90;;;;;;5048410;28;20219;-59
2023/12/13 11:24:26;;;;;;;5.17;1.57;;;8.70;99.90;;;;;;5046943;28;20541;-59
2023/12/13 11:26:58;;;;;;;2.20;1.30;;;8.60;99.90;;;;;;5053779;28;20443;-57
2023/12/13 11:29:26;;;;;;;3.60;1.70;;;8.80;99.90;;;;;;5049667;28;20747;-57
2023/12/13 11:31:56;;;;;;;3.03;1.60;;;8.60;99.90;;;;;;5053822;28;20427;-60
2023/12/13 11:34:42;;;;;;;1.87;1.10;;;8.70;99.90;;;;;;5041684;28;20804;-59
2023/12/13 11:37:11;;;;;;;4.63;1.03;;;8.60;99.90;;;;;;5026774;28;20529;-57
2023/12/13 11:39:38;;;;;;;3.10;1.20;;;8.70;99.90;;;;;;5032377;28;20521;-57
2023/12/13 11:42:07;;;;;;;1.60;0.87;;;8.60;99.90;;;;;;5043300;28;20428;-57
2023/12/13 11:44:34;;;;;;;5.93;1.53;;;8.50;99.90;;;;;;5031704;28;20821;-57
2023/12/13 11:47:03;;;;;;;1.50;0.70;;;8.90;99.90;;;;;;5033709;28;20797;-57
2023/12/13 11:49:29;;;;;;;1.57;0.77;;;8.50;99.90;;;;;;5041001;28;20428;-57
2023/12/13 11:51:55;;;;;;;1.40;0.73;;;8.90;99.90;;;;;;5048526;28;21092;-59
2023/12/13 11:54:21;;;;;;;2.40;0.90;;;9.00;99.90;;;;;;5035850;28;20183;-59
2023/12/13 11:56:46;;;;;;;3.20;1.00;;;8.80;99.90;;;;;;5026462;28;20467;-59
2023/12/13 11:59:13;;;;;;;1.57;0.63;;;9.10;99.90;;;;;;5025603;28;20184;-59
2023/12/13 12:01:38;;;;;;;2.50;0.97;;;9.20;99.90;;;;;;5027508;28;20688;-59
2023/12/13 12:04:04;;;;;;;2.23;1.00;;;9.10;99.90;;;;;;5027448;28;20417;-60
2023/12/13 12:06:30;;;;;;;2.70;0.87;;;9.20;99.90;;;;;;5026002;28;20190;-60
2023/12/13 12:08:58;;;;;;;5.83;0.90;;;9.30;99.90;;;;;;5025281;28;20186;-60
2023/12/13 12:11:24;;;;;;;1.63;0.70;;;9.10;99.90;;;;;;5024016;28;20425;-59
2023/12/13 12:13:52;;;;;;;2.37;0.93;;;8.80;99.90;;;;;;5025089;28;20465;-60
2023/12/13 12:16:19;;;;;;;1.10;0.50;;;8.70;99.90;;;;;;5028188;28;20183;-60
2023/12/13 12:18:46;;;;;;;1.20;0.60;;;8.70;99.90;;;;;;5024539;28;20429;-60
2023/12/13 12:21:12;;;;;;;2.17;0.77;;;8.70;99.90;;;;;;5004586;23;20501;-60
2023/12/13 12:23:44;;;;;;;3.90;0.70;;;9.10;99.90;;;;;;4976275;28;20527;-59
2023/12/13 12:26:12;;;;;;;1.73;0.57;;;8.70;99.90;;;;;;4974366;28;20416;-59
2023/12/13 12:28:40;;;;;;;2.10;0.90;;;8.90;99.90;;;;;;4974293;28;20412;-59
2023/12/13 12:31:09;;;;;;;1.10;0.50;;;8.90;99.90;;;;;;4973714;28;20434;-59
2023/12/13 12:33:36;;;;;;;5.00;1.13;;;8.40;99.90;;;;;;4980787;28;20434;-59
2023/12/13 12:36:01;;;;;;;1.80;0.70;;;8.30;99.90;;;;;;4973940;28;20415;-59
2023/12/13 12:38:27;;;;;;;1.30;0.60;;;8.20;99.90;;;;;;4976183;28;20486;-59
2023/12/13 12:40:52;;;;;;;11.80;1.30;;;8.10;99.90;;;;;;4978887;28;20630;-60
2023/12/13 12:43:20;;;;;;;2.17;0.80;;;8.10;99.90;;;;;;4979829;28;20176;-59
2023/12/13 12:45:46;;;;;;;16.83;0.73;;;8.10;99.90;;;;;;4975213;28;20181;-59
2023/12/13 12:48:12;;;;;;;2.90;0.97;;;8.10;99.90;;;;;;4977760;28;20425;-60
2023/12/13 12:50:38;;;;;;;2.77;1.00;;;8.10;99.90;;;;;;4984066;28;20875;-57
2023/12/13 12:53:03;;;;;;;1.40;0.70;;;8.40;99.90;;;;;;4974531;28;20418;-57